Time;durP1;ratioP1;P1;durP2;ratioP2;P2;SDS_P1;SDS_P2;PMS_P1;PMS_P2;Temp;Humidity;BMP_temperature;BMP_pressure;BME280_temperature;BME280_humidity;BME280_pressure;Samples;Min_cycle;Max_cycle;Signal;HPM_P1;HPM_P2
2023/01/13 00:01:08;;;;;;;4.70;2.03;;;;;;;;;;6362499;28;20292;-78
2023/01/13 00:04:13;;;;;;;6.47;3.10;;;;;;;;;;6363121;28;20273;-79
2023/01/13 00:07:20;;;;;;;3.27;2.60;;;;;;;;;;6362517;28;20311;-78
2023/01/13 00:10:25;;;;;;;8.20;2.47;;;;;;;;;;6362706;27;20292;-79
2023/01/13 00:13:32;;;;;;;6.77;2.50;;;;;;;;;;6346140;28;20281;-79
2023/01/13 00:16:37;;;;;;;2.50;1.87;;;;;;;;;;6324430;28;20296;-79
2023/01/13 00:19:43;;;;;;;11.23;2.80;;;;;;;;;;6311525;28;20274;-78
2023/01/13 00:22:49;;;;;;;7.50;2.43;;;;;;;;;;6311904;28;20273;-79
2023/01/13 00:25:56;;;;;;;8.77;2.53;;;;;;;;;;6311494;28;20459;-78
2023/01/13 00:29:02;;;;;;;6.10;2.43;;;;;;;;;;6311230;28;20438;-78
2023/01/13 00:32:07;;;;;;;5.43;2.00;;;;;;;;;;6293424;28;20296;-80
2023/01/13 00:35:12;;;;;;;5.90;2.50;;;;;;;;;;6310157;28;20357;-78
2023/01/13 00:38:19;;;;;;;3.93;2.40;;;;;;;;;;6310866;28;20605;-78
2023/01/13 00:41:26;;;;;;;5.67;2.23;;;;;;;;;;6310903;28;20296;-79
2023/01/13 00:44:30;;;;;;;4.40;2.37;;;;;;;;;;6311177;28;20288;-79
2023/01/13 00:47:35;;;;;;;2.20;1.90;;;;;;;;;;6310675;28;20297;-79
2023/01/13 00:50:40;;;;;;;5.80;2.27;;;;;;;;;;6310845;28;20293;-79
2023/01/13 00:53:48;;;;;;;3.27;2.03;;;;;;;;;;6310752;28;20277;-78
2023/01/13 00:56:54;;;;;;;3.87;2.27;;;;;;;;;;6310562;28;20303;-78
2023/01/13 00:59:59;;;;;;;4.97;2.00;;;;;;;;;;6310063;28;20315;-78
2023/01/13 01:03:07;;;;;;;3.00;2.10;;;;;;;;;;6292620;28;20268;-78
2023/01/13 01:06:14;;;;;;;3.60;2.20;;;;;;;;;;6310276;28;20289;-79
2023/01/13 01:09:21;;;;;;;5.80;2.00;;;;;;;;;;6330952;28;20627;-78
2023/01/13 01:12:28;;;;;;;2.77;1.90;;;;;;;;;;6342498;28;20291;-78
2023/01/13 01:15:33;;;;;;;3.13;2.00;;;;;;;;;;6342823;27;20299;-78
2023/01/13 01:18:40;;;;;;;2.27;1.77;;;;;;;;;;6342843;28;20291;-78
2023/01/13 01:21:45;;;;;;;3.43;1.77;;;;;;;;;;6360676;28;20287;-79
2023/01/13 01:24:52;;;;;;;5.90;2.00;;;;;;;;;;6359710;27;20266;-78
2023/01/13 01:27:57;;;;;;;2.80;1.90;;;;;;;;;;6360557;28;20270;-78
2023/01/13 01:31:07;;;;;;;3.37;1.87;;;;;;;;;;6360325;28;20292;-78
2023/01/13 01:34:12;;;;;;;1.90;1.53;;;;;;;;;;6360564;28;20275;-78
2023/01/13 01:37:18;;;;;;;1.77;1.50;;;;;;;;;;6359896;27;20294;-79
2023/01/13 01:40:26;;;;;;;4.53;1.90;;;;;;;;;;6360475;28;20298;-79
2023/01/13 01:44:05;;;;;;;2.47;1.93;;;;;;;;;;6360858;28;20264;-79
2023/01/13 01:47:14;;;;;;;1.97;1.87;;;;;;;;;;6359382;27;20297;-79
2023/01/13 01:50:20;;;;;;;4.77;1.77;;;;;;;;;;6360529;27;20294;-79
2023/01/13 01:53:27;;;;;;;3.70;1.90;;;;;;;;;;6360482;28;20262;-79
2023/01/13 01:56:34;;;;;;;5.80;1.70;;;;;;;;;;6359568;28;20299;-79
2023/01/13 01:59:39;;;;;;;2.93;1.87;;;;;;;;;;6360229;27;20290;-79
2023/01/13 02:03:06;;;;;;;5.33;2.10;;;;;;;;;;6360678;28;20269;-79
2023/01/13 02:06:13;;;;;;;3.83;2.00;;;;;;;;;;6234884;28;20300;-75
2023/01/13 02:09:18;;;;;;;3.73;2.20;;;;;;;;;;6236331;28;20541;-75
2023/01/13 02:12:30;;;;;;;3.17;1.87;;;;;;;;;;6236483;28;20270;-75
2023/01/13 02:15:41;;;;;;;2.43;2.03;;;;;;;;;;6236387;28;20278;-75
2023/01/13 02:18:54;;;;;;;3.97;2.10;;;;;;;;;;6235407;28;20290;-75
2023/01/13 02:22:15;;;;;;;5.50;2.10;;;;;;;;;;6235770;28;20437;-75
2023/01/13 02:25:49;;;;;;;2.80;1.90;;;;;;;;;;6236453;28;20273;-75
2023/01/13 02:32:36;;;;;;;4.03;2.20;;;;;;;;;;6219201;28;20274;-76
2023/01/13 02:35:48;;;;;;;5.83;2.10;;;;;;;;;;6237209;28;20279;-76
2023/01/13 02:39:00;;;;;;;4.57;1.90;;;;;;;;;;6241100;28;20299;-76
2023/01/13 02:45:32;;;;;;;7.57;2.30;;;;;;;;;;6240676;28;20345;-76
2023/01/13 02:48:40;;;;;;;5.77;2.20;;;;;;;;;;6240687;28;20280;-75
2023/01/13 02:51:46;;;;;;;2.77;2.00;;;;;;;;;;6239587;28;20272;-75
2023/01/13 02:54:55;;;;;;;6.93;2.57;;;;;;;;;;6222696;28;20274;-76
2023/01/13 02:58:02;;;;;;;5.30;2.20;;;;;;;;;;6222548;28;20585;-75
2023/01/13 03:01:07;;;;;;;2.53;2.13;;;;;;;;;;6240618;28;20286;-75
2023/01/13 03:04:15;;;;;;;3.40;2.20;;;;;;;;;;6245315;28;20303;-75
2023/01/13 03:07:45;;;;;;;5.30;1.80;;;;;;;;;;6264784;28;20288;-75
2023/01/13 03:11:08;;;;;;;3.33;1.70;;;;;;;;;;6263583;28;20284;-74
2023/01/13 03:14:23;;;;;;;3.30;1.80;;;;;;;;;;6265037;28;20273;-76
2023/01/13 03:17:35;;;;;;;4.73;1.97;;;;;;;;;;6264285;28;20277;-74
2023/01/13 03:20:47;;;;;;;2.63;2.23;;;;;;;;;;6264007;28;20289;-75
2023/01/13 03:23:57;;;;;;;4.03;1.93;;;;;;;;;;6247222;28;20291;-75
2023/01/13 03:27:06;;;;;;;5.37;1.93;;;;;;;;;;6263365;28;20554;-76
2023/01/13 03:30:17;;;;;;;2.20;2.00;;;;;;;;;;6264012;28;20271;-74
2023/01/13 03:33:25;;;;;;;2.57;1.63;;;;;;;;;;6263186;28;20479;-76
2023/01/13 03:36:33;;;;;;;2.13;1.90;;;;;;;;;;6263714;28;20272;-75
2023/01/13 03:39:41;;;;;;;2.67;2.00;;;;;;;;;;6264057;28;20293;-76
2023/01/13 03:46:11;;;;;;;3.40;1.80;;;;;;;;;;6262309;28;20586;-75
2023/01/13 03:49:21;;;;;;;5.17;2.10;;;;;;;;;;6262865;28;20272;-76
2023/01/13 03:52:29;;;;;;;5.43;1.77;;;;;;;;;;6263417;28;20290;-75
2023/01/13 03:55:37;;;;;;;3.43;1.80;;;;;;;;;;6263137;28;20275;-76
2023/01/13 03:58:44;;;;;;;3.57;2.10;;;;;;;;;;6263037;28;20267;-74
2023/01/13 04:01:54;;;;;;;5.10;1.90;;;;;;;;;;6245062;28;20486;-76
2023/01/13 04:05:01;;;;;;;2.10;2.00;;;;;;;;;;6245168;28;20299;-74
2023/01/13 04:08:16;;;;;;;4.07;2.00;;;;;;;;;;6237851;28;20395;-75
2023/01/13 04:11:27;;;;;;;2.33;2.07;;;;;;;;;;6238174;28;20276;-74
2023/01/13 04:14:32;;;;;;;5.70;2.00;;;;;;;;;;6238306;28;20447;-75
2023/01/13 04:17:38;;;;;;;3.23;2.10;;;;;;;;;;6238902;28;20272;-76
2023/01/13 04:20:44;;;;;;;3.30;2.10;;;;;;;;;;6238970;28;20584;-75
2023/01/13 04:23:51;;;;;;;3.40;2.57;;;;;;;;;;6237749;28;20269;-75
2023/01/13 04:26:56;;;;;;;4.37;2.20;;;;;;;;;;6237052;28;20440;-75
2023/01/13 04:30:02;;;;;;;4.70;2.23;;;;;;;;;;6237697;28;20274;-76
2023/01/13 04:33:07;;;;;;;7.63;2.10;;;;;;;;;;6238016;28;20276;-75
2023/01/13 04:36:12;;;;;;;2.30;2.20;;;;;;;;;;6220873;28;20265;-74
2023/01/13 04:39:19;;;;;;;4.03;2.60;;;;;;;;;;6220547;28;20548;-74
2023/01/13 04:42:24;;;;;;;8.63;2.60;;;;;;;;;;6238053;28;20275;-75
2023/01/13 04:45:29;;;;;;;8.10;2.60;;;;;;;;;;6237138;28;20534;-76
2023/01/13 04:48:34;;;;;;;8.90;2.90;;;;;;;;;;6237891;28;20450;-75
2023/01/13 04:51:40;;;;;;;3.13;2.70;;;;;;;;;;6237524;28;20548;-76
2023/01/13 04:54:47;;;;;;;4.30;2.57;;;;;;;;;;6236999;28;20287;-76
2023/01/13 04:57:52;;;;;;;6.37;2.67;;;;;;;;;;6237211;28;20271;-75
2023/01/13 05:00:57;;;;;;;4.87;2.87;;;;;;;;;;6236473;28;20455;-74
2023/01/13 05:04:02;;;;;;;7.07;2.90;;;;;;;;;;6236860;28;20306;-77
2023/01/13 05:07:07;;;;;;;4.70;3.47;;;;;;;;;;6236679;28;20271;-75
2023/01/13 05:10:14;;;;;;;4.67;3.43;;;;;;;;;;6237180;28;20280;-75
2023/01/13 05:17:02;;;;;;;3.20;3.10;;;;;;;;;;6236400;28;20272;-76
2023/01/13 05:20:09;;;;;;;4.53;3.93;;;;;;;;;;6237348;28;20287;-76
2023/01/13 05:26:38;;;;;;;6.27;3.80;;;;;;;;;;6236095;28;20271;-76
2023/01/13 05:29:44;;;;;;;8.40;3.97;;;;;;;;;;6219491;28;20268;-75
2023/01/13 05:32:51;;;;;;;6.87;4.63;;;;;;;;;;6237943;28;20268;-76
2023/01/13 05:35:57;;;;;;;4.93;4.20;;;;;;;;;;6236833;28;20273;-75
2023/01/13 05:39:02;;;;;;;9.33;4.10;;;;;;;;;;6236765;28;20276;-75
2023/01/13 05:45:32;;;;;;;4.37;3.90;;;;;;;;;;6236089;28;20267;-75
2023/01/13 05:48:39;;;;;;;3.33;3.13;;;;;;;;;;6236912;28;20266;-77
2023/01/13 05:51:45;;;;;;;5.93;4.00;;;;;;;;;;6236699;28;20276;-75
2023/01/13 05:54:51;;;;;;;4.33;3.93;;;;;;;;;;6236712;28;20269;-76
2023/01/13 05:57:57;;;;;;;3.80;3.53;;;;;;;;;;6236192;28;20268;-74
2023/01/13 06:01:04;;;;;;;4.57;3.10;;;;;;;;;;6219405;28;20606;-75
2023/01/13 06:04:11;;;;;;;5.63;3.47;;;;;;;;;;6236547;28;20319;-76
2023/01/13 06:07:16;;;;;;;5.03;3.73;;;;;;;;;;6236742;28;20272;-75
2023/01/13 06:10:21;;;;;;;5.80;3.20;;;;;;;;;;6237231;28;20269;-74
2023/01/13 06:13:28;;;;;;;7.47;4.63;;;;;;;;;;6241490;28;20266;-75
2023/01/13 06:16:33;;;;;;;4.67;4.23;;;;;;;;;;6241605;28;20271;-76
2023/01/13 06:20:35;;;;;;;7.83;4.90;;;;;;;;;;6410386;27;20461;-76
2023/01/13 06:23:41;;;;;;;8.03;4.57;;;;;;;;;;6383406;27;20279;-74
2023/01/13 06:26:46;;;;;;;6.30;4.27;;;;;;;;;;6383670;27;20265;-75
2023/01/13 06:29:51;;;;;;;8.47;4.20;;;;;;;;;;6383908;27;20272;-74
2023/01/13 06:33:00;;;;;;;4.43;4.03;;;;;;;;;;6384216;27;20269;-74
2023/01/13 06:36:12;;;;;;;7.03;4.17;;;;;;;;;;6382708;27;20267;-74
2023/01/13 06:39:20;;;;;;;5.00;4.37;;;;;;;;;;6383613;27;20292;-74
2023/01/13 06:45:50;;;;;;;4.93;4.30;;;;;;;;;;6383396;27;20268;-74
2023/01/13 06:48:55;;;;;;;7.40;4.50;;;;;;;;;;6382832;27;20275;-75
2023/01/13 06:52:02;;;;;;;9.70;4.70;;;;;;;;;;6381437;28;20272;-75
2023/01/13 06:55:08;;;;;;;7.77;4.70;;;;;;;;;;6381452;28;20283;-75
2023/01/13 06:58:13;;;;;;;4.80;4.27;;;;;;;;;;6383276;27;20588;-76
2023/01/13 07:01:19;;;;;;;5.67;4.67;;;;;;;;;;6382285;27;20269;-76
2023/01/13 07:04:24;;;;;;;5.23;4.17;;;;;;;;;;6380930;28;20262;-75
2023/01/13 07:07:32;;;;;;;4.30;4.00;;;;;;;;;;6383262;27;20265;-75
2023/01/13 07:10:38;;;;;;;4.33;3.90;;;;;;;;;;6382840;27;20350;-75
2023/01/13 07:17:05;;;;;;;4.97;3.70;;;;;;;;;;6381209;28;20412;-76
2023/01/13 07:20:14;;;;;;;5.47;3.00;;;;;;;;;;6381420;27;20298;-75
2023/01/13 07:23:20;;;;;;;3.43;3.20;;;;;;;;;;6381447;27;20265;-75
2023/01/13 07:26:26;;;;;;;3.50;3.27;;;;;;;;;;6381320;27;20268;-75
2023/01/13 07:29:31;;;;;;;7.80;3.10;;;;;;;;;;6377339;27;20269;-75
2023/01/13 07:32:36;;;;;;;3.13;2.77;;;;;;;;;;6365063;27;20266;-76
2023/01/13 07:35:41;;;;;;;8.17;3.07;;;;;;;;;;6363411;28;20271;-75
2023/01/13 07:38:48;;;;;;;2.50;2.30;;;;;;;;;;6364824;28;20290;-76
2023/01/13 07:45:17;;;;;;;5.80;3.30;;;;;;;;;;6364391;28;20270;-75
2023/01/13 07:48:22;;;;;;;7.60;3.20;;;;;;;;;;6364262;28;20266;-75
2023/01/13 07:51:27;;;;;;;7.43;3.10;;;;;;;;;;6364533;28;20267;-75
2023/01/13 07:54:34;;;;;;;5.17;2.70;;;;;;;;;;6364868;28;20397;-77
2023/01/13 07:57:45;;;;;;;4.67;2.97;;;;;;;;;;6363945;28;20459;-75
2023/01/13 08:00:50;;;;;;;3.23;2.50;;;;;;;;;;6364568;28;20285;-74
2023/01/13 08:03:57;;;;;;;2.80;2.70;;;;;;;;;;6364100;28;20447;-75
2023/01/13 08:07:02;;;;;;;2.93;2.70;;;;;;;;;;6363749;28;20264;-75
2023/01/13 08:10:10;;;;;;;8.23;2.60;;;;;;;;;;6363871;28;20288;-75
2023/01/13 08:13:18;;;;;;;3.43;2.40;;;;;;;;;;6363359;28;20267;-76
2023/01/13 08:16:24;;;;;;;6.03;2.30;;;;;;;;;;6364249;27;20270;-76
2023/01/13 08:19:29;;;;;;;2.37;2.23;;;;;;;;;;6362055;28;20291;-76
2023/01/13 08:22:34;;;;;;;6.43;2.50;;;;;;;;;;6364304;28;20270;-76
2023/01/13 08:25:41;;;;;;;4.87;2.50;;;;;;;;;;6362490;28;20480;-75
2023/01/13 08:28:46;;;;;;;1.77;1.73;;;;;;;;;;6364272;28;20267;-75
2023/01/13 08:31:52;;;;;;;2.83;1.80;;;;;;;;;;6364303;28;20366;-76
2023/01/13 08:34:56;;;;;;;1.90;1.80;;;;;;;;;;6364438;28;20262;-74
2023/01/13 08:38:01;;;;;;;1.90;1.90;;;;;;;;;;6363219;28;20532;-76
2023/01/13 08:41:13;;;;;;;3.87;2.10;;;;;;;;;;6362140;28;20477;-75
2023/01/13 08:44:18;;;;;;;4.93;2.07;;;;;;;;;;6362738;28;20267;-75
2023/01/13 08:47:23;;;;;;;2.90;2.03;;;;;;;;;;6361606;28;20555;-75
2023/01/13 08:50:29;;;;;;;3.47;2.17;;;;;;;;;;6362785;28;20267;-74
2023/01/13 08:53:34;;;;;;;1.90;1.80;;;;;;;;;;6362574;28;20276;-74
2023/01/13 08:56:42;;;;;;;2.03;1.93;;;;;;;;;;6362716;28;20267;-74
2023/01/13 08:59:47;;;;;;;2.00;1.90;;;;;;;;;;6362875;28;20470;-73
2023/01/13 09:02:52;;;;;;;2.37;2.20;;;;;;;;;;6362683;28;20458;-74
2023/01/13 09:05:58;;;;;;;3.70;2.07;;;;;;;;;;6362718;28;20311;-74
2023/01/13 09:09:03;;;;;;;2.87;1.63;;;;;;;;;;6363844;28;20266;-75
2023/01/13 09:15:35;;;;;;;1.70;1.60;;;;;;;;;;6331452;28;20272;-75
2023/01/13 09:18:40;;;;;;;1.20;1.20;;;;;;;;;;6362411;27;20302;-74
2023/01/13 09:21:46;;;;;;;1.50;1.50;;;;;;;;;;6362604;28;20287;-75
2023/01/13 09:24:51;;;;;;;1.57;1.47;;;;;;;;;;6362869;28;20271;-75
2023/01/13 09:27:57;;;;;;;1.50;1.50;;;;;;;;;;6361637;28;20272;-74
2023/01/13 09:31:03;;;;;;;1.20;1.10;;;;;;;;;;6362468;27;20271;-75
2023/01/13 09:37:47;;;;;;;3.33;2.00;;;;;;;;;;6283784;28;20278;-75
2023/01/13 09:40:52;;;;;;;1.97;1.10;;;;;;;;;;6283958;28;20294;-74
2023/01/13 09:43:59;;;;;;;1.40;1.40;;;;;;;;;;6357357;28;20275;-75
2023/01/13 09:47:15;;;;;;;1.10;1.10;;;;;;;;;;6361876;28;20272;-75
2023/01/13 09:50:26;;;;;;;0.90;0.90;;;;;;;;;;6362310;28;20267;-75
2023/01/13 09:53:34;;;;;;;0.90;0.90;;;;;;;;;;6360807;28;20273;-74
2023/01/13 09:56:39;;;;;;;1.00;1.00;;;;;;;;;;6362222;28;20274;-75
2023/01/13 09:59:46;;;;;;;3.20;1.07;;;;;;;;;;6360865;28;20421;-76
2023/01/13 10:03:10;;;;;;;1.63;1.00;;;;;;;;;;6361321;28;20267;-75
2023/01/13 10:06:19;;;;;;;1.20;1.10;;;;;;;;;;6362127;28;20288;-75
2023/01/13 10:09:30;;;;;;;0.90;0.90;;;;;;;;;;6359944;28;20262;-74
2023/01/13 10:16:18;;;;;;;2.53;0.90;;;;;;;;;;6360671;28;20267;-75
2023/01/13 10:19:28;;;;;;;1.17;1.10;;;;;;;;;;6361016;28;20306;-75
2023/01/13 10:22:50;;;;;;;1.10;1.10;;;;;;;;;;6362184;28;20288;-76
2023/01/13 10:26:01;;;;;;;1.20;1.20;;;;;;;;;;6360986;28;20274;-77
2023/01/13 10:29:23;;;;;;;1.50;1.50;;;;;;;;;;6359934;28;20264;-76
2023/01/13 10:32:30;;;;;;;1.90;1.80;;;;;;;;;;6360547;28;20292;-75
2023/01/13 10:35:58;;;;;;;2.77;2.67;;;;;;;;;;6360750;28;20270;-75
2023/01/13 10:39:09;;;;;;;4.93;2.30;;;;;;;;;;6361348;28;20399;-76
2023/01/13 10:42:16;;;;;;;6.20;2.47;;;;;;;;;;6360528;28;20290;-76
2023/01/13 10:45:25;;;;;;;4.93;2.60;;;;;;;;;;6360422;28;20275;-76
2023/01/13 10:48:41;;;;;;;3.53;2.70;;;;;;;;;;6361351;28;20532;-75
2023/01/13 10:51:49;;;;;;;4.37;3.30;;;;;;;;;;6359812;28;20451;-75
2023/01/13 10:54:54;;;;;;;5.47;3.43;;;;;;;;;;6360441;28;20263;-75
2023/01/13 10:58:13;;;;;;;7.20;3.93;;;;;;;;;;6360915;28;20268;-76
2023/01/13 11:01:25;;;;;;;7.97;4.27;;;;;;;;;;6360280;28;20368;-75
2023/01/13 11:04:35;;;;;;;9.30;5.13;;;;;;;;;;6360683;28;20431;-76
2023/01/13 11:07:41;;;;;;;10.57;5.10;;;;;;;;;;6366000;28;20271;-76
2023/01/13 11:10:49;;;;;;;10.77;4.73;;;;;;;;;;6365435;28;20277;-76
2023/01/13 11:17:31;;;;;;;5.20;4.70;;;;;;;;;;6364729;28;20317;-76
2023/01/13 11:20:41;;;;;;;7.90;4.10;;;;;;;;;;6362011;28;20295;-76
2023/01/13 11:23:49;;;;;;;5.47;3.70;;;;;;;;;;6364406;27;20280;-75
2023/01/13 11:26:57;;;;;;;5.07;3.57;;;;;;;;;;6364285;28;20281;-76
2023/01/13 11:30:10;;;;;;;3.60;3.27;;;;;;;;;;6365237;28;20358;-75
2023/01/13 11:33:43;;;;;;;3.03;2.93;;;;;;;;;;6365580;28;20276;-75
2023/01/13 11:36:52;;;;;;;3.07;2.97;;;;;;;;;;6318723;28;20572;-76
2023/01/13 11:40:04;;;;;;;3.47;2.73;;;;;;;;;;6363534;28;20560;-76
2023/01/13 11:43:17;;;;;;;2.73;2.53;;;;;;;;;;6364814;28;20285;-74
2023/01/13 11:46:26;;;;;;;2.90;2.70;;;;;;;;;;6364370;28;20273;-74
2023/01/13 11:49:33;;;;;;;3.07;2.77;;;;;;;;;;6365073;28;20273;-76
2023/01/13 11:53:07;;;;;;;2.70;2.50;;;;;;;;;;6364483;28;20276;-75
2023/01/13 11:56:37;;;;;;;8.33;2.70;;;;;;;;;;6363799;28;20261;-75
2023/01/13 12:00:07;;;;;;;4.63;2.30;;;;;;;;;;6364331;27;20427;-74
2023/01/13 12:03:29;;;;;;;2.30;2.03;;;;;;;;;;6352930;28;20319;-75
2023/01/13 12:06:36;;;;;;;2.07;1.97;;;;;;;;;;6362756;28;20273;-78
2023/01/13 12:09:56;;;;;;;3.40;2.03;;;;;;;;;;6363409;27;20651;-75
2023/01/13 12:13:07;;;;;;;4.43;2.00;;;;;;;;;;6364205;28;20276;-79
2023/01/13 12:16:22;;;;;;;2.27;1.90;;;;;;;;;;6363328;28;20577;-74
2023/01/13 12:19:29;;;;;;;4.40;1.83;;;;;;;;;;6363615;28;20292;-74
2023/01/13 12:22:34;;;;;;;6.93;2.27;;;;;;;;;;6363995;28;20292;-76
2023/01/13 12:25:45;;;;;;;5.13;2.20;;;;;;;;;;6363460;28;20276;-75
2023/01/13 12:28:55;;;;;;;6.57;2.00;;;;;;;;;;6363885;28;20268;-75
2023/01/13 12:32:02;;;;;;;5.73;1.80;;;;;;;;;;6363889;28;20518;-76
2023/01/13 12:35:22;;;;;;;3.40;2.00;;;;;;;;;;6363034;28;20269;-75
2023/01/13 12:38:35;;;;;;;2.67;2.30;;;;;;;;;;6363562;28;20261;-76
2023/01/13 12:45:18;;;;;;;4.10;2.00;;;;;;;;;;6363341;28;20277;-75
2023/01/13 12:48:45;;;;;;;6.20;2.33;;;;;;;;;;6364770;27;20272;-75
2023/01/13 12:52:12;;;;;;;3.67;2.30;;;;;;;;;;6363918;28;20269;-76
2023/01/13 12:55:21;;;;;;;3.90;2.07;;;;;;;;;;6363548;28;20263;-75
2023/01/13 12:58:29;;;;;;;6.80;2.30;;;;;;;;;;6362618;28;20443;-75
2023/01/13 13:01:36;;;;;;;10.17;2.30;;;;;;;;;;6363408;28;20284;-76
2023/01/13 13:04:45;;;;;;;8.03;2.10;;;;;;;;;;6363068;28;20264;-75
2023/01/13 13:08:04;;;;;;;3.50;2.07;;;;;;;;;;6362115;28;20267;-76
2023/01/13 13:15:18;;;;;;;7.40;2.10;;;;;;;;;;6318281;28;20265;-76
2023/01/13 13:18:27;;;;;;;8.73;2.20;;;;;;;;;;6362410;28;20575;-76
2023/01/13 13:22:22;;;;;;;11.20;2.30;;;;;;;;;;6361288;28;20269;-75
2023/01/13 13:25:28;;;;;;;8.33;2.20;;;;;;;;;;6355961;28;20566;-76
2023/01/13 13:28:36;;;;;;;5.23;2.20;;;;;;;;;;6361214;28;20299;-75
2023/01/13 13:32:24;;;;;;;9.07;2.37;;;;;;;;;;6362323;28;20341;-75
2023/01/13 13:35:52;;;;;;;8.27;2.67;;;;;;;;;;6361989;28;20268;-74
2023/01/13 13:49:39;;;;;;;6.33;2.60;;;;;;;;;;6361370;28;20260;-75
2023/01/13 13:52:50;;;;;;;13.47;2.93;;;;;;;;;;6361185;28;20277;-75
2023/01/13 13:55:58;;;;;;;5.30;2.70;;;;;;;;;;6362233;28;20468;-76
2023/01/13 13:59:04;;;;;;;7.77;2.60;;;;;;;;;;6362012;28;20276;-76
2023/01/13 14:02:17;;;;;;;3.20;2.33;;;;;;;;;;6361379;28;20284;-76
2023/01/13 14:05:26;;;;;;;5.63;2.30;;;;;;;;;;6360819;28;20569;-74
2023/01/13 14:08:36;;;;;;;6.17;2.50;;;;;;;;;;6360918;28;20270;-76
2023/01/13 14:11:42;;;;;;;5.00;2.37;;;;;;;;;;6360814;27;20271;-75
2023/01/13 14:14:48;;;;;;;3.80;2.33;;;;;;;;;;6361462;28;20272;-75
2023/01/13 14:17:53;;;;;;;6.07;2.50;;;;;;;;;;6361076;28;20276;-76
2023/01/13 14:21:02;;;;;;;11.23;3.03;;;;;;;;;;6359900;28;20258;-75
2023/01/13 14:24:19;;;;;;;5.10;2.63;;;;;;;;;;6360531;28;20291;-76
2023/01/13 14:27:27;;;;;;;6.87;2.70;;;;;;;;;;6360958;28;20268;-76
2023/01/13 14:30:33;;;;;;;5.73;2.60;;;;;;;;;;6361852;28;20271;-75
2023/01/13 14:33:40;;;;;;;10.90;2.80;;;;;;;;;;6361787;28;20272;-76
2023/01/13 14:36:49;;;;;;;7.77;2.50;;;;;;;;;;6359668;28;20277;-77
2023/01/13 14:39:55;;;;;;;7.23;2.37;;;;;;;;;;6360869;28;20297;-76
2023/01/13 14:43:00;;;;;;;5.63;2.50;;;;;;;;;;6365757;28;20308;-77
2023/01/13 14:46:06;;;;;;;7.10;2.70;;;;;;;;;;6366687;27;20544;-76
2023/01/13 14:49:23;;;;;;;10.27;2.70;;;;;;;;;;6366264;28;20273;-77
2023/01/13 14:52:33;;;;;;;8.03;2.60;;;;;;;;;;6366155;28;20268;-75
2023/01/13 14:55:39;;;;;;;8.00;2.63;;;;;;;;;;6366101;28;20452;-75
2023/01/13 14:58:44;;;;;;;8.17;2.60;;;;;;;;;;6365929;28;20272;-75
2023/01/13 15:01:51;;;;;;;8.80;2.70;;;;;;;;;;6365438;28;20264;-75
2023/01/13 15:04:58;;;;;;;9.97;3.00;;;;;;;;;;6365013;28;20287;-75
2023/01/13 15:08:08;;;;;;;12.33;3.13;;;;;;;;;;6366256;28;20276;-76
2023/01/13 15:11:23;;;;;;;9.47;3.07;;;;;;;;;;6365273;28;20555;-76
2023/01/13 15:14:32;;;;;;;10.73;3.30;;;;;;;;;;6364574;28;20271;-75
2023/01/13 15:17:37;;;;;;;17.20;3.80;;;;;;;;;;6364887;28;20320;-76
2023/01/13 15:20:43;;;;;;;14.57;3.60;;;;;;;;;;6364646;28;20296;-75
2023/01/13 15:23:49;;;;;;;13.60;4.00;;;;;;;;;;6365622;28;20292;-76
2023/01/13 15:26:55;;;;;;;12.60;3.37;;;;;;;;;;6365230;28;20569;-76
2023/01/13 15:30:00;;;;;;;16.77;4.00;;;;;;;;;;6365451;28;20289;-75
2023/01/13 15:33:06;;;;;;;8.60;2.97;;;;;;;;;;6363165;28;20269;-76
2023/01/13 15:36:22;;;;;;;9.90;2.90;;;;;;;;;;6364520;28;20269;-75
2023/01/13 15:39:28;;;;;;;15.17;3.77;;;;;;;;;;6363108;28;20520;-76
2023/01/13 15:49:40;;;;;;;16.10;3.87;;;;;;;;;;6361205;28;20283;-76
2023/01/13 15:52:45;;;;;;;9.10;3.50;;;;;;;;;;6363288;28;20275;-76
2023/01/13 15:55:53;;;;;;;19.20;4.43;;;;;;;;;;6364238;28;20264;-76
2023/01/13 15:58:59;;;;;;;20.53;5.03;;;;;;;;;;6365016;28;20275;-75
2023/01/13 16:02:04;;;;;;;15.60;4.40;;;;;;;;;;6365064;28;20271;-75
2023/01/13 16:05:12;;;;;;;21.63;4.40;;;;;;;;;;6363570;28;20305;-75
2023/01/13 16:08:18;;;;;;;15.43;4.17;;;;;;;;;;6363484;28;20267;-75
2023/01/13 16:11:26;;;;;;;13.67;4.13;;;;;;;;;;6363105;28;20473;-74
2023/01/13 16:14:31;;;;;;;20.37;4.13;;;;;;;;;;6364474;28;20272;-75
2023/01/13 16:17:37;;;;;;;19.50;3.77;;;;;;;;;;6363788;27;20544;-76
2023/01/13 16:20:42;;;;;;;15.73;3.83;;;;;;;;;;6365408;28;20351;-75
2023/01/13 16:23:48;;;;;;;18.13;3.40;;;;;;;;;;6363605;28;20429;-75
2023/01/13 16:26:54;;;;;;;15.33;3.33;;;;;;;;;;6363259;28;20268;-75
2023/01/13 16:30:00;;;;;;;19.17;3.50;;;;;;;;;;6363771;28;20267;-75
2023/01/13 16:33:05;;;;;;;21.40;3.43;;;;;;;;;;6363761;28;20268;-75
2023/01/13 16:36:15;;;;;;;18.10;3.60;;;;;;;;;;6363099;28;20266;-75
2023/01/13 16:39:21;;;;;;;19.47;4.00;;;;;;;;;;6363394;28;20265;-76
2023/01/13 16:42:28;;;;;;;21.70;3.73;;;;;;;;;;6362737;28;20269;-75
2023/01/13 16:45:33;;;;;;;23.87;6.03;;;;;;;;;;6362951;28;20291;-76
2023/01/13 16:48:39;;;;;;;16.13;4.20;;;;;;;;;;6362800;27;20263;-75
2023/01/13 16:51:44;;;;;;;27.50;5.07;;;;;;;;;;6362513;28;20264;-76
2023/01/13 16:54:49;;;;;;;21.33;3.87;;;;;;;;;;6362898;28;20296;-75
2023/01/13 16:57:56;;;;;;;23.00;4.00;;;;;;;;;;6362722;28;20276;-75
2023/01/13 17:01:01;;;;;;;21.23;3.90;;;;;;;;;;6361848;28;20268;-75
2023/01/13 17:04:07;;;;;;;17.70;4.00;;;;;;;;;;6362417;28;20283;-76
2023/01/13 17:07:16;;;;;;;20.33;3.97;;;;;;;;;;6363083;28;20443;-76
2023/01/13 17:10:23;;;;;;;21.47;4.07;;;;;;;;;;6363114;27;20422;-75
2023/01/13 17:13:29;;;;;;;17.23;3.87;;;;;;;;;;6363158;28;20280;-75
2023/01/13 17:16:34;;;;;;;20.40;3.60;;;;;;;;;;6362109;27;20430;-76
2023/01/13 17:19:42;;;;;;;17.33;3.90;;;;;;;;;;6362052;28;20300;-75
2023/01/13 17:22:47;;;;;;;16.50;3.70;;;;;;;;;;6361802;28;20272;-76
2023/01/13 17:26:02;;;;;;;30.63;3.57;;;;;;;;;;6361683;27;20293;-75
2023/01/13 17:29:12;;;;;;;16.90;3.40;;;;;;;;;;6362934;28;20264;-76
2023/01/13 17:32:18;;;;;;;25.47;4.23;;;;;;;;;;6362034;28;20289;-75
2023/01/13 17:35:23;;;;;;;21.63;3.40;;;;;;;;;;6362139;28;20571;-75
2023/01/13 17:38:29;;;;;;;20.93;3.67;;;;;;;;;;6361831;28;20265;-77
2023/01/13 17:41:34;;;;;;;18.73;3.77;;;;;;;;;;6362668;28;20272;-79
2023/01/13 17:44:41;;;;;;;26.43;4.47;;;;;;;;;;6361999;28;20612;-79
2023/01/13 17:47:46;;;;;;;27.37;5.77;;;;;;;;;;6361836;28;20265;-78
2023/01/13 17:50:52;;;;;;;24.13;5.70;;;;;;;;;;6361912;28;20269;-78
2023/01/13 17:54:00;;;;;;;30.03;5.77;;;;;;;;;;6361406;28;20265;-77
2023/01/13 17:57:05;;;;;;;21.93;5.00;;;;;;;;;;6360378;28;20548;-74
2023/01/13 18:00:15;;;;;;;27.50;5.30;;;;;;;;;;6361233;28;20270;-76
2023/01/13 18:03:23;;;;;;;26.50;5.63;;;;;;;;;;6360520;28;20268;-78
2023/01/13 18:06:28;;;;;;;21.37;5.03;;;;;;;;;;6362156;28;20285;-85
2023/01/13 18:09:34;;;;;;;23.20;4.70;;;;;;;;;;6362164;28;20267;-76
2023/01/13 18:12:42;;;;;;;23.93;4.77;;;;;;;;;;6362123;28;20271;-77
2023/01/13 18:15:49;;;;;;;16.40;3.83;;;;;;;;;;6361507;28;20307;-75
2023/01/13 18:27:17;;;;;;;21.07;4.00;;;;;;;;;;6361895;28;20289;-76
2023/01/13 18:29:06;;;;;;;19.23;4.20;;;;;;;;;;6359580;28;20277;-76
2023/01/13 18:32:15;;;;;;;19.17;4.13;;;;;;;;;;6360017;28;20272;-76
2023/01/13 18:35:20;;;;;;;22.73;3.93;;;;;;;;;;6361795;28;20272;-76
2023/01/13 18:38:25;;;;;;;29.53;4.20;;;;;;;;;;6361650;28;20550;-78
2023/01/13 18:44:54;;;;;;;28.93;4.87;;;;;;;;;;6361850;28;20280;-77
2023/01/13 18:48:02;;;;;;;29.13;4.67;;;;;;;;;;6360875;28;20552;-79
2023/01/13 18:51:07;;;;;;;25.23;4.47;;;;;;;;;;6360779;28;20263;-80
2023/01/13 18:54:13;;;;;;;22.33;4.30;;;;;;;;;;6359622;28;20267;-80
2023/01/13 18:57:20;;;;;;;24.37;4.37;;;;;;;;;;6361327;28;20271;-77
2023/01/13 19:00:26;;;;;;;16.33;3.77;;;;;;;;;;6359757;28;20273;-78
2023/01/13 19:03:32;;;;;;;18.70;4.40;;;;;;;;;;6360123;28;20545;-79
2023/01/13 19:06:46;;;;;;;25.27;4.47;;;;;;;;;;6361552;28;20297;-77
2023/01/13 19:09:51;;;;;;;21.17;4.50;;;;;;;;;;6359710;28;20269;-81
2023/01/13 19:12:56;;;;;;;19.97;4.40;;;;;;;;;;6359782;28;20351;-81
2023/01/13 19:16:05;;;;;;;29.33;5.37;;;;;;;;;;6360437;28;20552;-80
2023/01/13 19:19:13;;;;;;;24.03;4.97;;;;;;;;;;6361262;28;20297;-78
2023/01/13 19:22:21;;;;;;;24.83;5.20;;;;;;;;;;6360469;28;20281;-81
2023/01/13 19:25:26;;;;;;;31.20;5.87;;;;;;;;;;6359897;28;20387;-81
2023/01/13 19:28:32;;;;;;;34.70;5.97;;;;;;;;;;6364849;28;20273;-78
2023/01/13 19:31:37;;;;;;;26.20;5.70;;;;;;;;;;6363565;28;20268;-82
2023/01/13 19:34:46;;;;;;;15.63;5.50;;;;;;;;;;6365485;28;20556;-80
2023/01/13 19:37:52;;;;;;;19.73;5.37;;;;;;;;;;6366062;28;20273;-78
2023/01/13 19:40:59;;;;;;;23.63;5.50;;;;;;;;;;6365004;28;20256;-80
2023/01/13 19:47:27;;;;;;;20.53;4.40;;;;;;;;;;6364457;28;20281;-78
2023/01/13 19:50:37;;;;;;;26.10;5.27;;;;;;;;;;6364965;28;20268;-78
2023/01/13 19:53:42;;;;;;;29.07;5.57;;;;;;;;;;6364718;28;20263;-77
2023/01/13 19:56:48;;;;;;;25.50;6.03;;;;;;;;;;6365613;28;20265;-77
2023/01/13 19:59:53;;;;;;;19.70;5.43;;;;;;;;;;6364959;28;20268;-76
2023/01/13 20:03:02;;;;;;;18.70;5.03;;;;;;;;;;6364651;28;20272;-76
2023/01/13 20:06:09;;;;;;;21.70;5.33;;;;;;;;;;6364640;28;20289;-78
2023/01/13 20:09:15;;;;;;;28.17;6.40;;;;;;;;;;6364160;28;20280;-77